Time;durP1;ratioP1;P1;durP2;ratioP2;P2;SDS_P1;SDS_P2;PMS_P1;PMS_P2;Temp;Humidity;BMP_temperature;BMP_pressure;BME280_temperature;BME280_humidity;BME280_pressure;Samples;Min_cycle;Max_cycle;Signal;HPM_P1;HPM_P2
2023/11/05 00:00:23;;;;;;;4.80;1.27;;;10.40;99.90;;;;;;5033974;28;20026;-56
2023/11/05 00:02:49;;;;;;;4.27;1.23;;;10.40;99.90;;;;;;5034268;28;20033;-54
2023/11/05 00:05:15;;;;;;;2.73;0.80;;;10.40;99.90;;;;;;5034508;28;20462;-52
2023/11/05 00:07:41;;;;;;;3.83;0.77;;;10.40;99.90;;;;;;5034150;28;20056;-54
2023/11/05 00:10:08;;;;;;;1.63;0.53;;;10.40;99.90;;;;;;5034198;28;20437;-54
2023/11/05 00:12:34;;;;;;;3.50;1.00;;;10.40;99.90;;;;;;5016364;28;20128;-55
2023/11/05 00:14:59;;;;;;;6.17;1.03;;;10.40;99.90;;;;;;5033900;28;20061;-55
2023/11/05 00:17:25;;;;;;;2.47;0.90;;;10.50;99.90;;;;;;5033740;28;20030;-52
2023/11/05 00:19:50;;;;;;;3.67;1.00;;;10.50;99.90;;;;;;5036293;28;20037;-56
2023/11/05 00:22:18;;;;;;;6.37;1.17;;;10.50;99.90;;;;;;5037610;28;20034;-54
2023/11/05 00:24:43;;;;;;;4.17;0.90;;;10.60;99.90;;;;;;5037517;28;20335;-54
2023/11/05 00:27:09;;;;;;;5.13;0.90;;;10.60;99.90;;;;;;5037928;28;20076;-54
2023/11/05 00:29:35;;;;;;;3.70;0.90;;;10.60;99.90;;;;;;5019375;28;20436;-51
2023/11/05 00:32:00;;;;;;;2.93;0.60;;;10.60;99.90;;;;;;5019691;28;20040;-54
2023/11/05 00:34:26;;;;;;;5.40;0.70;;;10.70;99.90;;;;;;5037459;28;20037;-54
2023/11/05 00:36:51;;;;;;;2.03;0.80;;;10.70;99.90;;;;;;5003417;28;20104;-54
2023/11/05 00:39:17;;;;;;;5.40;1.40;;;10.70;99.90;;;;;;5019535;28;20044;-55
2023/11/05 00:41:43;;;;;;;5.73;0.90;;;10.70;99.90;;;;;;5037434;28;20394;-54
2023/11/05 00:44:08;;;;;;;3.03;0.87;;;10.70;99.90;;;;;;5036906;28;20036;-55
2023/11/05 00:46:34;;;;;;;6.27;0.80;;;10.70;99.90;;;;;;5036670;28;20120;-53
2023/11/05 00:49:00;;;;;;;3.93;0.60;;;10.80;99.90;;;;;;5003002;28;20051;-54
2023/11/05 00:51:25;;;;;;;5.10;1.50;;;10.80;99.90;;;;;;5019037;28;20033;-55
2023/11/05 00:53:51;;;;;;;2.53;0.80;;;10.80;99.90;;;;;;5019078;28;20073;-54
2023/11/05 00:56:16;;;;;;;5.63;0.80;;;10.80;99.90;;;;;;5019092;28;20068;-53
2023/11/05 00:58:44;;;;;;;3.87;0.60;;;10.80;99.90;;;;;;5018841;28;20048;-53
2023/11/05 01:01:10;;;;;;;2.10;0.97;;;10.80;99.90;;;;;;5018981;28;20033;-55
2023/11/05 01:03:36;;;;;;;2.97;0.80;;;10.80;99.90;;;;;;5036742;28;20029;-54
2023/11/05 01:06:02;;;;;;;3.57;0.60;;;10.80;99.90;;;;;;5018405;28;20069;-54
2023/11/05 01:08:27;;;;;;;6.83;0.87;;;10.80;99.90;;;;;;5036022;28;20029;-54
2023/11/05 01:10:53;;;;;;;5.93;0.60;;;10.80;99.90;;;;;;5036553;28;20067;-54
2023/11/05 01:13:18;;;;;;;2.63;0.90;;;10.80;99.90;;;;;;5018932;28;20071;-54
2023/11/05 01:15:44;;;;;;;1.80;0.63;;;10.80;99.90;;;;;;5036095;28;20052;-54
2023/11/05 01:18:10;;;;;;;4.87;0.80;;;10.70;99.90;;;;;;5036291;28;20470;-51
2023/11/05 01:20:36;;;;;;;4.93;0.60;;;10.70;99.90;;;;;;5036333;28;20466;-53
2023/11/05 01:23:01;;;;;;;5.67;1.03;;;10.70;99.90;;;;;;5036780;28;20036;-52
2023/11/05 01:25:27;;;;;;;2.40;0.70;;;10.60;99.90;;;;;;5018900;28;20053;-55
2023/11/05 01:27:52;;;;;;;6.03;0.70;;;10.50;99.90;;;;;;5036261;28;20113;-54
2023/11/05 01:30:19;;;;;;;2.83;0.57;;;10.40;99.90;;;;;;5035423;28;20033;-53
2023/11/05 01:32:44;;;;;;;2.43;0.70;;;10.40;99.90;;;;;;5019401;28;20100;-54
2023/11/05 01:35:10;;;;;;;3.70;0.77;;;10.30;99.90;;;;;;5037462;28;20064;-53
2023/11/05 01:37:36;;;;;;;5.40;0.97;;;10.20;99.90;;;;;;5019489;28;20025;-54
2023/11/05 01:40:02;;;;;;;9.27;1.27;;;10.10;99.90;;;;;;5018953;28;20076;-54
2023/11/05 01:42:28;;;;;;;1.47;0.57;;;10.10;99.90;;;;;;5018980;28;20152;-54
2023/11/05 01:44:53;;;;;;;7.97;0.97;;;10.00;99.90;;;;;;5037180;28;20058;-52
2023/11/05 01:47:20;;;;;;;4.27;0.60;;;10.00;99.90;;;;;;5019023;28;20036;-51
2023/11/05 01:49:46;;;;;;;3.27;0.77;;;10.00;99.90;;;;;;5019108;28;20036;-56
2023/11/05 01:52:12;;;;;;;3.87;0.60;;;9.90;99.90;;;;;;5019156;28;20030;-50
2023/11/05 01:54:40;;;;;;;4.50;0.87;;;9.90;99.90;;;;;;5018491;28;20032;-53
2023/11/05 01:57:06;;;;;;;4.07;0.90;;;9.90;99.90;;;;;;5019500;28;20061;-53
2023/11/05 01:59:33;;;;;;;4.37;0.80;;;9.80;99.90;;;;;;5019139;28;20037;-54
2023/11/05 02:02:00;;;;;;;3.77;0.90;;;9.80;99.90;;;;;;5019043;28;20034;-56
2023/11/05 02:04:27;;;;;;;4.03;0.70;;;9.70;99.90;;;;;;5018726;28;20596;-54
2023/11/05 02:06:53;;;;;;;2.23;0.60;;;9.80;99.90;;;;;;5018867;28;20116;-53
2023/11/05 02:09:19;;;;;;;2.93;0.57;;;9.70;99.90;;;;;;5019272;28;20540;-51
2023/11/05 02:11:44;;;;;;;3.33;0.87;;;9.70;99.90;;;;;;5019332;28;20048;-50
2023/11/05 02:14:14;;;;;;;3.63;0.80;;;9.70;99.90;;;;;;5002516;28;20175;-53
2023/11/05 02:16:40;;;;;;;5.10;0.90;;;9.70;99.90;;;;;;5036821;28;20140;-52
2023/11/05 02:19:06;;;;;;;5.63;0.70;;;9.70;99.90;;;;;;5018177;28;20462;-55
2023/11/05 02:21:41;;;;;;;3.73;0.80;;;9.70;99.90;;;;;;5036372;28;20052;-54
2023/11/05 02:24:07;;;;;;;3.03;0.60;;;9.70;99.90;;;;;;5018514;28;20044;-54
2023/11/05 02:26:33;;;;;;;2.10;0.70;;;9.70;99.90;;;;;;5035790;28;20029;-52
2023/11/05 02:28:59;;;;;;;5.83;0.83;;;9.70;99.90;;;;;;5018333;28;20049;-51
2023/11/05 02:31:24;;;;;;;2.77;0.57;;;9.70;99.90;;;;;;5018498;28;20022;-53
2023/11/05 02:33:50;;;;;;;4.73;0.70;;;9.70;99.90;;;;;;5017931;28;20552;-54
2023/11/05 02:36:16;;;;;;;3.93;0.50;;;9.70;99.90;;;;;;5018002;28;20433;-51
2023/11/05 02:38:42;;;;;;;7.47;0.63;;;9.70;99.90;;;;;;5000882;28;20061;-53
2023/11/05 02:41:11;;;;;;;3.63;0.63;;;9.70;99.90;;;;;;5017953;28;20038;-54
2023/11/05 02:43:38;;;;;;;8.07;1.38;;;9.70;99.90;;;;;;5034843;28;20069;-54
2023/11/05 02:46:05;;;;;;;5.87;1.60;;;9.70;99.90;;;;;;5035630;28;20120;-52
2023/11/05 02:48:30;;;;;;;3.50;0.70;;;9.70;99.90;;;;;;5035683;28;20027;-54
2023/11/05 02:50:56;;;;;;;6.53;0.57;;;9.70;99.90;;;;;;5018072;28;20053;-51
2023/11/05 02:53:22;;;;;;;1.87;0.50;;;9.70;99.90;;;;;;5018861;28;20033;-53
2023/11/05 02:55:48;;;;;;;2.93;0.67;;;9.70;99.90;;;;;;5035779;28;20045;-52
2023/11/05 02:58:17;;;;;;;3.90;0.70;;;9.80;99.90;;;;;;5018391;28;20203;-53
2023/11/05 03:00:44;;;;;;;3.15;0.77;;;9.70;99.90;;;;;;5002350;28;20519;-55
2023/11/05 03:03:11;;;;;;;3.40;0.73;;;9.70;99.90;;;;;;5036097;28;20022;-55
2023/11/05 03:05:40;;;;;;;2.80;0.83;;;9.70;99.90;;;;;;5036117;28;20033;-55
2023/11/05 03:08:06;;;;;;;;;;;9.70;99.90;;;;;;5036389;28;20029;-55
2023/11/05 03:10:32;;;;;;;2.30;0.40;;;9.70;99.90;;;;;;5018279;28;19913;-52
2023/11/05 03:12:57;;;;;;;4.10;1.07;;;9.70;99.90;;;;;;5035855;28;20060;-55
2023/11/05 03:15:23;;;;;;;5.13;1.03;;;9.80;99.90;;;;;;5035941;28;20116;-54
2023/11/05 03:17:50;;;;;;;1.60;0.60;;;9.80;99.90;;;;;;5035650;28;20116;-53
2023/11/05 03:20:15;;;;;;;2.50;0.60;;;9.80;99.90;;;;;;5036107;28;20126;-55
2023/11/05 03:22:41;;;;;;;2.70;0.50;;;9.80;99.90;;;;;;5037078;28;20029;-53
2023/11/05 03:25:07;;;;;;;2.53;0.60;;;9.80;99.90;;;;;;5018960;28;20128;-51
2023/11/05 03:27:33;;;;;;;2.30;0.60;;;9.80;99.90;;;;;;5019395;28;20029;-51
2023/11/05 03:30:00;;;;;;;7.20;0.53;;;9.80;99.90;;;;;;5019297;28;20503;-52
2023/11/05 03:32:25;;;;;;;2.77;0.43;;;9.80;99.90;;;;;;5019762;28;20029;-50
2023/11/05 03:34:53;;;;;;;2.97;0.53;;;9.80;99.90;;;;;;5019863;28;20040;-52
2023/11/05 03:37:19;;;;;;;3.50;0.67;;;9.80;99.90;;;;;;5002962;28;20044;-52
2023/11/05 03:39:45;;;;;;;3.80;1.00;;;9.90;99.90;;;;;;5019446;28;20033;-50
2023/11/05 03:42:10;;;;;;;5.37;0.83;;;9.90;99.90;;;;;;5019291;28;20033;-50
2023/11/05 03:44:36;;;;;;;1.17;0.40;;;9.90;99.90;;;;;;5037409;28;20052;-50
2023/11/05 03:47:03;;;;;;;2.30;0.50;;;9.90;99.90;;;;;;5019383;28;20133;-51
2023/11/05 03:49:28;;;;;;;2.60;0.80;;;9.90;99.90;;;;;;5018690;28;20026;-50
2023/11/05 03:51:54;;;;;;;3.77;0.70;;;10.00;99.90;;;;;;5036544;28;20497;-52
2023/11/05 03:54:20;;;;;;;1.80;0.50;;;10.00;99.90;;;;;;5037131;28;20025;-50
2023/11/05 03:56:46;;;;;;;3.13;0.77;;;9.90;99.90;;;;;;5021919;28;20030;-51
2023/11/05 03:59:12;;;;;;;1.17;0.40;;;10.00;99.90;;;;;;5021712;28;20078;-54
2023/11/05 04:01:37;;;;;;;3.80;0.57;;;10.00;99.90;;;;;;5021707;28;20420;-51
2023/11/05 04:04:03;;;;;;;2.77;0.60;;;10.00;99.90;;;;;;5021222;28;20052;-54
2023/11/05 04:06:31;;;;;;;1.77;0.50;;;10.00;99.90;;;;;;5020538;28;20116;-53
2023/11/05 04:08:56;;;;;;;4.07;0.50;;;9.90;99.90;;;;;;5039311;28;20530;-52
2023/11/05 04:11:22;;;;;;;3.63;0.50;;;9.90;99.90;;;;;;5022304;28;20075;-54
2023/11/05 04:13:48;;;;;;;3.57;0.77;;;10.00;99.90;;;;;;5039802;28;20151;-53
2023/11/05 04:16:14;;;;;;;2.50;0.50;;;10.00;99.90;;;;;;5039693;28;20021;-52
2023/11/05 04:18:41;;;;;;;2.80;0.50;;;10.00;99.90;;;;;;5039076;28;20042;-54
2023/11/05 04:21:07;;;;;;;3.43;0.50;;;10.00;99.90;;;;;;5040157;28;20163;-53
2023/11/05 04:23:33;;;;;;;3.83;0.80;;;10.10;99.90;;;;;;5039594;28;20038;-54
2023/11/05 04:25:59;;;;;;;2.27;0.40;;;10.10;99.90;;;;;;5039372;28;20041;-54
2023/11/05 04:28:25;;;;;;;5.33;0.70;;;10.10;99.90;;;;;;5039711;28;20025;-53
2023/11/05 04:30:50;;;;;;;1.23;0.50;;;10.10;99.90;;;;;;5038855;28;20033;-55
2023/11/05 04:33:16;;;;;;;2.93;0.73;;;10.20;99.90;;;;;;5039234;28;20029;-55
2023/11/05 04:35:42;;;;;;;3.43;0.73;;;10.20;99.90;;;;;;5039229;28;20037;-54
2023/11/05 04:38:08;;;;;;;2.70;0.70;;;10.10;99.90;;;;;;5038983;28;20026;-54
2023/11/05 04:40:34;;;;;;;1.93;0.37;;;10.10;99.90;;;;;;5021372;28;20033;-55
2023/11/05 04:42:59;;;;;;;3.10;0.60;;;10.20;99.90;;;;;;5039579;28;20030;-53
2023/11/05 04:45:25;;;;;;;1.17;0.50;;;10.20;99.90;;;;;;5038627;28;20044;-54
2023/11/05 04:47:51;;;;;;;1.60;0.63;;;10.20;99.90;;;;;;5038328;28;20125;-54
2023/11/05 04:50:16;;;;;;;1.13;0.47;;;10.20;99.90;;;;;;5038180;28;20508;-52
2023/11/05 04:52:42;;;;;;;1.47;0.50;;;10.20;99.90;;;;;;5020908;28;20036;-55
2023/11/05 04:55:08;;;;;;;3.97;0.60;;;10.30;99.90;;;;;;5038706;28;20116;-50
2023/11/05 04:57:33;;;;;;;3.97;0.50;;;10.30;99.90;;;;;;5038167;28;20036;-54
2023/11/05 04:59:59;;;;;;;1.87;0.40;;;10.20;99.90;;;;;;5020412;28;20059;-52
2023/11/05 05:02:25;;;;;;;2.43;0.40;;;10.30;99.90;;;;;;5038264;28;20034;-53
2023/11/05 05:04:51;;;;;;;5.70;0.70;;;10.30;99.90;;;;;;5019937;28;20042;-51
2023/11/05 05:07:17;;;;;;;2.27;0.60;;;10.30;99.90;;;;;;5037261;28;20039;-53
2023/11/05 05:09:43;;;;;;;1.83;0.43;;;10.20;99.90;;;;;;5037865;28;20410;-53
2023/11/05 05:12:09;;;;;;;1.47;0.60;;;10.20;99.90;;;;;;5019969;28;20033;-54
2023/11/05 05:14:35;;;;;;;3.77;0.47;;;10.20;99.90;;;;;;5038459;28;20064;-54
2023/11/05 05:17:01;;;;;;;2.07;0.57;;;10.30;99.90;;;;;;5037929;28;20767;-53
2023/11/05 05:19:26;;;;;;;2.50;0.40;;;10.30;99.90;;;;;;5020013;28;20121;-54
2023/11/05 05:21:52;;;;;;;1.93;0.30;;;10.30;99.90;;;;;;5037789;28;20057;-51
2023/11/05 05:24:18;;;;;;;3.47;0.73;;;10.30;99.90;;;;;;5020276;28;20547;-55
2023/11/05 05:26:43;;;;;;;1.53;0.47;;;10.30;99.90;;;;;;5037479;28;20044;-54
2023/11/05 05:29:09;;;;;;;1.77;0.43;;;10.30;99.90;;;;;;5037319;28;20022;-54
2023/11/05 05:31:35;;;;;;;2.00;0.50;;;10.30;99.90;;;;;;5037381;28;20033;-51
2023/11/05 05:34:01;;;;;;;3.80;0.60;;;10.30;99.90;;;;;;5037546;28;20025;-55
2023/11/05 05:36:27;;;;;;;0.83;0.40;;;10.40;99.90;;;;;;5037205;28;20056;-55
2023/11/05 05:38:52;;;;;;;0.57;0.33;;;10.40;99.90;;;;;;5019319;28;20042;-54
2023/11/05 05:41:18;;;;;;;2.73;0.40;;;10.30;99.90;;;;;;5037149;28;20029;-54
2023/11/05 05:43:44;;;;;;;1.33;0.60;;;10.40;99.90;;;;;;5037040;28;20038;-56
2023/11/05 05:46:15;;;;;;;4.77;1.07;;;10.40;99.90;;;;;;5036957;28;20044;-55
2023/11/05 05:48:40;;;;;;;1.50;0.40;;;10.40;99.90;;;;;;5036790;28;20033;-55
2023/11/05 05:51:12;;;;;;;2.20;0.60;;;10.40;99.90;;;;;;5036418;28;20386;-53
2023/11/05 05:53:38;;;;;;;0.77;0.40;;;10.40;99.90;;;;;;5036819;28;20029;-56
2023/11/05 05:56:05;;;;;;;1.70;1.10;;;10.40;99.90;;;;;;5036742;28;20022;-55
2023/11/05 05:58:31;;;;;;;3.30;1.47;;;10.50;99.90;;;;;;5036408;28;20041;-55
2023/11/05 06:00:57;;;;;;;4.37;1.17;;;10.50;99.90;;;;;;5036424;28;20030;-55
2023/11/05 06:03:23;;;;;;;4.00;0.30;;;10.60;99.90;;;;;;5036820;28;20026;-55
2023/11/05 06:05:49;;;;;;;2.57;0.50;;;10.50;99.90;;;;;;5036659;28;20470;-54
2023/11/05 06:08:14;;;;;;;2.83;0.50;;;10.50;99.90;;;;;;5036617;28;20056;-53
2023/11/05 06:10:40;;;;;;;0.63;0.27;;;10.50;99.90;;;;;;5036483;28;20563;-54
2023/11/05 06:13:07;;;;;;;1.33;0.40;;;10.40;99.90;;;;;;5037080;28;20029;-53
2023/11/05 06:15:33;;;;;;;2.17;0.47;;;10.50;99.90;;;;;;5037615;28;20479;-50
2023/11/05 06:17:58;;;;;;;0.97;0.40;;;10.40;99.90;;;;;;5037002;28;20026;-54
2023/11/05 06:20:24;;;;;;;1.50;0.23;;;10.50;99.90;;;;;;5037422;28;20029;-53
2023/11/05 06:22:53;;;;;;;1.37;0.40;;;10.50;99.90;;;;;;5037037;28;20025;-50
2023/11/05 06:25:19;;;;;;;0.52;0.30;;;10.50;99.90;;;;;;5037237;28;20033;-54
2023/11/05 06:27:44;;;;;;;1.87;0.40;;;10.50;99.90;;;;;;5036760;28;20093;-56
2023/11/05 06:30:10;;;;;;;1.77;0.30;;;10.50;99.90;;;;;;5019269;28;20037;-52
2023/11/05 06:32:37;;;;;;;3.30;0.40;;;10.50;99.90;;;;;;5037407;28;20021;-54
2023/11/05 06:35:03;;;;;;;0.70;0.30;;;10.40;99.90;;;;;;5037304;28;20475;-54
2023/11/05 06:37:30;;;;;;;0.73;0.27;;;10.50;99.90;;;;;;5036630;28;20056;-53
2023/11/05 06:39:56;;;;;;;1.03;0.47;;;10.50;99.90;;;;;;5036934;28;20033;-52
2023/11/05 06:42:22;;;;;;;1.90;0.30;;;10.50;99.90;;;;;;5037390;28;20046;-55
2023/11/05 06:44:48;;;;;;;2.83;0.50;;;10.50;99.90;;;;;;5036450;28;20510;-55
2023/11/05 06:47:14;;;;;;;1.37;0.70;;;10.50;99.90;;;;;;5036980;28;20492;-55
2023/11/05 06:49:39;;;;;;;0.57;0.23;;;10.40;99.90;;;;;;5019517;28;20029;-51
2023/11/05 06:52:05;;;;;;;1.47;0.30;;;10.40;99.90;;;;;;5037326;28;20080;-51
2023/11/05 06:54:31;;;;;;;1.77;0.20;;;10.40;99.90;;;;;;5036781;28;20048;-52
2023/11/05 06:56:57;;;;;;;0.60;0.40;;;10.40;99.90;;;;;;5036499;28;20034;-52
2023/11/05 06:59:23;;;;;;;0.70;0.27;;;10.40;99.90;;;;;;5018946;28;20442;-54
2023/11/05 07:01:51;;;;;;;0.20;0.10;;;10.40;99.90;;;;;;5036850;28;20037;-52
2023/11/05 07:04:17;;;;;;;0.47;0.20;;;10.50;99.90;;;;;;5036749;28;20030;-54
2023/11/05 07:06:45;;;;;;;0.53;0.27;;;10.60;99.90;;;;;;5036174;28;20090;-52
2023/11/05 07:09:12;;;;;;;0.47;0.20;;;10.50;99.90;;;;;;5036406;28;20025;-54
2023/11/05 07:11:37;;;;;;;0.23;0.23;;;10.60;99.90;;;;;;5036082;28;20044;-52
2023/11/05 07:14:03;;;;;;;0.10;0.10;;;10.60;99.90;;;;;;5036195;28;20033;-53
2023/11/05 07:16:29;;;;;;;0.57;0.17;;;10.50;99.90;;;;;;5035971;28;20043;-53
2023/11/05 07:18:56;;;;;;;0.40;0.20;;;10.60;99.90;;;;;;5035716;28;20032;-53
2023/11/05 07:21:22;;;;;;;0.63;0.40;;;10.60;99.90;;;;;;5035200;28;20041;-54
2023/11/05 07:23:47;;;;;;;0.97;0.20;;;10.60;99.90;;;;;;5036248;28;20025;-52
2023/11/05 07:26:13;;;;;;;0.37;0.30;;;10.60;99.90;;;;;;5035220;28;20393;-50
2023/11/05 07:28:39;;;;;;;0.10;0.10;;;10.60;99.90;;;;;;5035185;28;20030;-53
2023/11/05 07:31:05;;;;;;;0.40;0.33;;;10.60;99.90;;;;;;5036280;28;20025;-52
2023/11/05 07:33:31;;;;;;;1.10;0.40;;;10.60;99.90;;;;;;5036199;28;20040;-55
2023/11/05 07:35:58;;;;;;;0.60;0.20;;;10.70;99.90;;;;;;5017438;28;20026;-52
2023/11/05 07:38:26;;;;;;;1.17;0.33;;;10.70;99.90;;;;;;5017538;28;20115;-54
2023/11/05 07:40:52;;;;;;;0.50;0.30;;;10.70;99.90;;;;;;5035259;28;20037;-51
2023/11/05 07:43:17;;;;;;;1.70;0.30;;;10.70;99.90;;;;;;5035420;28;20033;-53
2023/11/05 07:45:43;;;;;;;1.57;0.57;;;10.70;99.90;;;;;;5035291;28;20032;-50
2023/11/05 07:48:09;;;;;;;0.43;0.33;;;10.80;99.90;;;;;;5035043;28;20391;-52
2023/11/05 07:50:35;;;;;;;0.70;0.53;;;10.80;99.90;;;;;;5035335;28;20041;-55
2023/11/05 07:53:00;;;;;;;1.40;0.40;;;10.80;99.90;;;;;;5017529;28;20072;-54
2023/11/05 07:55:27;;;;;;;0.60;0.23;;;10.80;99.90;;;;;;5017783;28;20398;-54
2023/11/05 07:57:52;;;;;;;0.53;0.40;;;10.80;99.90;;;;;;5034732;28;20124;-55
2023/11/05 08:00:18;;;;;;;0.37;0.37;;;10.80;99.90;;;;;;5034546;28;20122;-55
2023/11/05 08:02:47;;;;;;;3.03;0.40;;;10.80;99.90;;;;;;5034348;28;20486;-53
2023/11/05 08:05:13;;;;;;;0.20;0.20;;;10.80;99.90;;;;;;5034833;28;20041;-55
2023/11/05 08:07:39;;;;;;;0.43;0.20;;;10.80;99.90;;;;;;5033796;28;20033;-55
2023/11/05 08:10:06;;;;;;;0.20;0.10;;;10.90;99.90;;;;;;5034100;28;20034;-53
2023/11/05 08:12:33;;;;;;;0.57;0.20;;;10.90;99.90;;;;;;5017750;28;20490;-52
2023/11/05 08:14:59;;;;;;;0.20;0.20;;;10.90;99.90;;;;;;5035666;28;20034;-52
2023/11/05 08:17:24;;;;;;;0.37;0.27;;;10.90;99.90;;;;;;5035230;28;20029;-53
2023/11/05 08:19:50;;;;;;;2.30;0.30;;;10.90;99.90;;;;;;5034714;28;20322;-51
2023/11/05 08:22:17;;;;;;;0.93;0.40;;;10.90;99.90;;;;;;5016981;28;20037;-54
2023/11/05 08:24:44;;;;;;;0.43;0.20;;;11.00;99.90;;;;;;5017215;28;20067;-52
2023/11/05 08:27:10;;;;;;;1.13;0.40;;;11.00;99.90;;;;;;5034836;28;20448;-51
2023/11/05 08:29:36;;;;;;;0.97;0.30;;;10.90;99.90;;;;;;5035474;28;20394;-51
2023/11/05 08:32:02;;;;;;;1.23;0.30;;;10.90;99.90;;;;;;5035239;28;20030;-51
2023/11/05 08:34:27;;;;;;;0.83;0.40;;;10.90;99.90;;;;;;5035298;28;20029;-54
2023/11/05 08:36:54;;;;;;;0.50;0.40;;;10.90;99.90;;;;;;5034884;28;20025;-53
2023/11/05 08:39:20;;;;;;;0.60;0.30;;;10.90;99.90;;;;;;5034481;28;20030;-55
2023/11/05 08:41:46;;;;;;;1.40;0.60;;;10.90;99.90;;;;;;5039213;28;20039;-51
2023/11/05 08:44:12;;;;;;;0.43;0.23;;;11.00;99.90;;;;;;5038780;28;20085;-51
2023/11/05 08:46:37;;;;;;;0.30;0.30;;;11.00;99.90;;;;;;5038524;28;20040;-52
2023/11/05 08:49:04;;;;;;;1.73;0.33;;;11.00;99.90;;;;;;5038380;28;20033;-55
2023/11/05 08:51:33;;;;;;;0.80;0.60;;;11.10;99.90;;;;;;5038522;28;20061;-50
2023/11/05 08:53:59;;;;;;;1.98;0.20;;;11.10;99.90;;;;;;5021373;28;20124;-53
2023/11/05 08:56:25;;;;;;;0.50;0.40;;;11.10;99.90;;;;;;5038079;28;20061;-54
2023/11/05 08:58:51;;;;;;;0.20;0.20;;;11.20;99.90;;;;;;5038486;28;20038;-53
2023/11/05 09:01:17;;;;;;;0.27;0.27;;;11.20;99.90;;;;;;5038611;28;20039;-50
2023/11/05 09:03:46;;;;;;;0.87;0.30;;;11.20;99.90;;;;;;5038962;28;20459;-52
2023/11/05 09:06:12;;;;;;;;;;;11.30;99.90;;;;;;5038911;28;20516;-52
2023/11/05 09:08:39;;;;;;;0.70;0.30;;;11.20;99.90;;;;;;5039238;28;19952;-54
2023/11/05 09:11:06;;;;;;;0.70;0.20;;;11.20;99.90;;;;;;5039052;28;20551;-52
2023/11/05 09:13:31;;;;;;;0.63;0.47;;;11.20;99.90;;;;;;5039127;28;20033;-50
2023/11/05 09:15:57;;;;;;;1.50;0.30;;;11.20;99.90;;;;;;5021800;28;20113;-53
2023/11/05 09:18:24;;;;;;;1.10;0.43;;;11.20;99.90;;;;;;5039041;28;20461;-49
2023/11/05 09:20:50;;;;;;;0.30;0.20;;;11.10;99.90;;;;;;5039276;28;20057;-51
2023/11/05 09:23:16;;;;;;;2.27;0.57;;;11.10;99.90;;;;;;5038848;28;20060;-52
2023/11/05 09:25:42;;;;;;;1.23;0.33;;;11.10;99.90;;;;;;5038551;28;20030;-51
2023/11/05 09:28:08;;;;;;;0.90;0.40;;;11.10;99.90;;;;;;5038150;28;20075;-50
2023/11/05 09:30:34;;;;;;;2.17;1.00;;;11.00;99.90;;;;;;5038292;28;20024;-51
2023/11/05 09:33:00;;;;;;;1.63;1.00;;;11.10;99.90;;;;;;5020979;28;20034;-52
2023/11/05 09:35:26;;;;;;;7.17;3.40;;;11.10;99.90;;;;;;5038299;28;20079;-52
2023/11/05 09:37:52;;;;;;;5.27;2.57;;;11.20;99.90;;;;;;5037986;28;20033;-51
2023/11/05 09:40:19;;;;;;;5.57;2.30;;;11.30;99.90;;;;;;5038304;28;20049;-52
2023/11/05 09:43:01;;;;;;;1.70;0.60;;;11.40;99.90;;;;;;5038004;28;20044;-52
2023/11/05 09:45:33;;;;;;;3.20;0.80;;;11.50;99.90;;;;;;5038697;28;20033;-50
2023/11/05 09:48:06;;;;;;;2.17;0.80;;;11.50;99.90;;;;;;5037732;28;20056;-51
2023/11/05 09:50:41;;;;;;;1.77;0.50;;;11.50;99.90;;;;;;5037231;28;20029;-50
2023/11/05 09:53:17;;;;;;;2.57;0.50;;;11.50;99.90;;;;;;5020151;28;20139;-54
2023/11/05 09:55:47;;;;;;;1.60;0.60;;;11.50;99.90;;;;;;5037165;28;20285;-50
2023/11/05 09:58:13;;;;;;;;;;;11.50;99.90;;;;;;5038186;28;20055;-52
2023/11/05 10:00:39;;;;;;;0.53;0.40;;;11.40;99.90;;;;;;5020131;28;19928;-51
2023/11/05 10:03:09;;;;;;;2.00;0.50;;;11.40;99.90;;;;;;5038434;28;20037;-51
2023/11/05 10:05:37;;;;;;;1.97;0.43;;;11.40;99.90;;;;;;5038482;28;20033;-50
2023/11/05 10:08:05;;;;;;;1.50;0.60;;;11.50;99.90;;;;;;5037619;28;20033;-51
2023/11/05 10:10:32;;;;;;;1.57;0.50;;;11.40;99.90;;;;;;5037817;28;20496;-50
2023/11/05 10:12:58;;;;;;;3.77;1.10;;;11.40;99.90;;;;;;5037944;28;20483;-50
2023/11/05 10:15:24;;;;;;;2.87;1.17;;;11.30;99.90;;;;;;5019738;28;20034;-50
2023/11/05 10:17:54;;;;;;;2.80;1.30;;;11.30;99.90;;;;;;5037107;28;20037;-50
2023/11/05 10:20:23;;;;;;;4.03;1.60;;;11.30;99.90;;;;;;5037015;28;20049;-49
2023/11/05 10:23:10;;;;;;;3.33;1.37;;;11.30;99.90;;;;;;5036849;28;20497;-49
2023/11/05 10:25:35;;;;;;;3.53;1.97;;;11.30;99.90;;;;;;5019075;28;20043;-53
2023/11/05 10:28:03;;;;;;;2.80;1.40;;;11.40;99.90;;;;;;5036113;28;20033;-50
2023/11/05 10:30:31;;;;;;;2.57;0.70;;;11.40;99.90;;;;;;5036235;28;20438;-54
2023/11/05 10:32:57;;;;;;;0.93;0.77;;;11.40;99.90;;;;;;5035142;28;20367;-52
2023/11/05 10:35:27;;;;;;;2.40;0.80;;;11.40;99.90;;;;;;5035147;28;20033;-54
2023/11/05 10:37:54;;;;;;;2.23;0.83;;;11.50;99.90;;;;;;5032816;28;20065;-55
2023/11/05 10:40:20;;;;;;;2.70;1.30;;;11.50;99.90;;;;;;5017516;28;20044;-55
2023/11/05 10:42:50;;;;;;;2.33;1.40;;;11.50;99.90;;;;;;5036092;28;20417;-55
2023/11/05 10:45:18;;;;;;;3.20;1.20;;;11.50;99.90;;;;;;5035568;28;20155;-54
2023/11/05 10:47:47;;;;;;;2.47;0.80;;;11.50;99.90;;;;;;5035634;28;20039;-54
2023/11/05 10:50:39;;;;;;;1.10;0.82;;;11.60;99.90;;;;;;5035210;28;20040;-54
2023/11/05 10:53:06;;;;;;;2.20;1.00;;;11.50;99.90;;;;;;5032364;28;20052;-53
2023/11/05 10:55:37;;;;;;;2.97;1.23;;;11.60;99.90;;;;;;5035336;28;20121;-54
2023/11/05 10:58:06;;;;;;;5.17;1.30;;;11.60;99.90;;;;;;5035606;28;20033;-55
2023/11/05 11:00:35;;;;;;;;;;;11.60;99.90;;;;;;5036198;28;20486;-53
2023/11/05 11:03:02;;;;;;;6.07;2.28;;;11.70;99.90;;;;;;5034950;28;19944;-53
2023/11/05 11:05:43;;;;;;;5.85;1.42;;;11.70;99.90;;;;;;5017429;28;20037;-50
2023/11/05 11:08:21;;;;;;;3.20;1.07;;;11.80;99.90;;;;;;5035365;28;20083;-54
2023/11/05 11:10:48;;;;;;;3.47;1.40;;;11.80;99.90;;;;;;5035462;28;20033;-53
2023/11/05 11:13:28;;;;;;;4.83;1.13;;;11.80;99.90;;;;;;5035816;28;20036;-53
2023/11/05 11:15:55;;;;;;;3.80;1.10;;;11.80;99.90;;;;;;5017772;28;20034;-55
2023/11/05 11:18:26;;;;;;;4.27;1.57;;;11.80;99.90;;;;;;5035191;28;20096;-54
2023/11/05 11:20:54;;;;;;;2.53;1.00;;;11.80;99.90;;;;;;5017364;28;20052;-53
2023/11/05 11:23:21;;;;;;;3.63;1.10;;;11.70;99.90;;;;;;5035491;28;20033;-55
2023/11/05 11:25:59;;;;;;;2.60;1.03;;;11.60;99.90;;;;;;5035320;28;20482;-54
2023/11/05 11:28:29;;;;;;;1.93;1.00;;;11.60;99.90;;;;;;5034755;28;20041;-50
2023/11/05 11:30:56;;;;;;;1.43;0.60;;;11.50;99.90;;;;;;5035671;28;20493;-49
2023/11/05 11:33:22;;;;;;;1.33;0.90;;;11.40;99.90;;;;;;5035624;28;20045;-54
2023/11/05 11:35:48;;;;;;;1.30;0.60;;;11.40;99.90;;;;;;5035731;28;20494;-52
2023/11/05 11:38:16;;;;;;;2.10;0.80;;;11.40;99.90;;;;;;5035312;28;20044;-52
2023/11/05 11:40:55;;;;;;;2.87;0.77;;;11.40;99.90;;;;;;5035339;28;20041;-53
2023/11/05 11:43:22;;;;;;;0.68;0.55;;;11.30;99.90;;;;;;5035222;28;20079;-51
2023/11/05 11:45:48;;;;;;;0.93;0.73;;;11.40;99.90;;;;;;5035027;28;20034;-54
2023/11/05 11:48:17;;;;;;;2.20;1.00;;;11.30;99.90;;;;;;5034966;28;20034;-52
2023/11/05 11:50:53;;;;;;;1.85;0.93;;;11.30;99.90;;;;;;5035176;28;20037;-53
2023/11/05 11:53:26;;;;;;;2.97;1.20;;;11.20;99.90;;;;;;5035204;28;20375;-52
2023/11/05 11:55:52;;;;;;;1.33;0.77;;;11.20;99.90;;;;;;5017280;28;20033;-53
2023/11/05 11:58:18;;;;;;;1.00;0.70;;;11.10;99.90;;;;;;5035253;28;20036;-53
2023/11/05 12:00:44;;;;;;;1.70;0.80;;;11.10;99.90;;;;;;5034860;28;20030;-53
2023/11/05 12:03:10;;;;;;;2.27;0.50;;;11.00;99.90;;;;;;5035743;28;20049;-54
2023/11/05 12:05:40;;;;;;;1.13;0.50;;;10.90;99.90;;;;;;5034945;28;20029;-54
2023/11/05 12:08:06;;;;;;;1.10;0.50;;;10.70;99.90;;;;;;5035067;28;20030;-55
2023/11/05 12:10:31;;;;;;;2.53;0.50;;;10.60;99.90;;;;;;5035416;28;20065;-56
2023/11/05 12:12:59;;;;;;;3.87;0.80;;;10.50;99.90;;;;;;5035347;28;20053;-54
2023/11/05 12:15:26;;;;;;;2.63;0.77;;;10.50;99.90;;;;;;5036824;28;20045;-54
2023/11/05 12:17:52;;;;;;;4.73;1.17;;;10.60;99.90;;;;;;5039272;28;20056;-54
2023/11/05 12:20:18;;;;;;;3.30;1.20;;;10.70;99.90;;;;;;5038345;28;20030;-54
2023/11/05 12:22:48;;;;;;;4.60;1.60;;;10.70;99.90;;;;;;5038890;28;20037;-56
2023/11/05 12:25:14;;;;;;;2.30;1.20;;;10.80;99.90;;;;;;5039162;28;20037;-53
2023/11/05 12:27:48;;;;;;;3.17;1.50;;;10.90;99.90;;;;;;5039204;28;20073;-55
2023/11/05 12:30:24;;;;;;;3.67;1.50;;;10.90;99.90;;;;;;5038744;28;20026;-53
2023/11/05 12:32:50;;;;;;;3.97;1.50;;;11.00;99.90;;;;;;5038986;28;20124;-55
2023/11/05 12:35:16;;;;;;;5.17;1.50;;;11.00;99.90;;;;;;5020752;28;20045;-53
2023/11/05 12:37:42;;;;;;;6.97;1.80;;;11.10;99.90;;;;;;5038831;28;20037;-53
2023/11/05 12:40:09;;;;;;;4.80;1.70;;;11.10;99.90;;;;;;5037961;28;20424;-53
2023/11/05 12:42:36;;;;;;;5.03;1.50;;;11.10;99.90;;;;;;5038291;28;20034;-53
2023/11/05 12:45:07;;;;;;;5.53;1.57;;;11.20;99.90;;;;;;5020714;28;20556;-53
2023/11/05 12:47:33;;;;;;;5.53;1.50;;;11.20;99.90;;;;;;5038347;28;20030;-56